Time,TemperatureF,DewpointF,PressureIn,WindDirection,WindDirectionDegrees,WindSpeedMPH,WindSpeedGustMPH,Humidity,HourlyPrecipIn,Conditions,Clouds,dailyrainin,SoftwareType,DateUTC
2013-03-20 00:03:00,34.0,17.0,30.20,WSW,237,0.0,2.0,50,0.00,,,0.00,,2013-03-20 04:03:00,
2013-03-20 00:12:00,34.0,17.0,30.20,WSW,237,0.0,2.0,50,0.00,,,0.00,,2013-03-20 04:12:00,
2013-03-20 00:23:00,34.0,18.0,30.19,West,264,0.0,0.0,52,0.00,,,0.00,,2013-03-20 04:23:00,
2013-03-20 00:32:00,33.0,17.0,30.19,West,268,1.0,3.0,52,0.00,,,0.00,,2013-03-20 04:32:00,
2013-03-20 00:43:00,33.0,17.0,30.19,West,268,1.0,3.0,52,0.00,,,0.00,,2013-03-20 04:43:00,
2013-03-20 00:53:00,34.0,19.0,30.19,West,268,1.0,3.0,53,0.00,,,0.00,,2013-03-20 04:53:00,
2013-03-20 01:02:00,33.0,18.0,30.19,WSW,258,0.0,0.0,54,0.00,,,0.00,,2013-03-20 05:02:00,
2013-03-20 01:12:00,33.0,18.0,30.18,West,261,0.0,2.0,54,0.00,,,0.00,,2013-03-20 05:12:00,
2013-03-20 01:23:00,33.0,18.0,30.18,West,261,0.0,2.0,54,0.00,,,0.00,,2013-03-20 05:23:00,
2013-03-20 01:32:00,33.0,19.0,30.18,WSW,248,0.0,0.0,55,0.00,,,0.00,,2013-03-20 05:32:00,
2013-03-20 01:42:00,33.0,19.0,30.18,WSW,248,0.0,0.0,55,0.00,,,0.00,,2013-03-20 05:42:00,
2013-03-20 01:52:00,33.0,19.0,30.18,West,274,0.0,0.0,55,0.00,,,0.00,,2013-03-20 05:52:00,
2013-03-20 02:03:00,33.0,19.0,30.18,West,264,0.0,0.0,57,0.00,,,0.00,,2013-03-20 06:03:00,
2013-03-20 02:12:00,33.0,19.0,30.18,West,264,0.0,0.0,57,0.00,,,0.00,,2013-03-20 06:12:00,
2013-03-20 02:22:00,33.0,19.0,30.18,West,280,0.0,0.0,57,0.00,,,0.00,,2013-03-20 06:22:00,
2013-03-20 02:32:00,33.0,19.0,30.18,West,281,0.0,0.0,57,0.00,,,0.00,,2013-03-20 06:32:00,
2013-03-20 02:42:00,33.0,19.0,30.18,West,281,0.0,0.0,57,0.00,,,0.00,,2013-03-20 06:42:00,
2013-03-20 02:52:00,34.0,20.0,30.18,West,275,0.0,0.0,57,0.00,,,0.00,,2013-03-20 06:52:00,
2013-03-20 03:02:00,33.0,19.0,30.17,WNW,282,0.0,0.0,57,0.00,,,0.00,,2013-03-20 07:02:00,
2013-03-20 03:12:00,33.0,19.0,30.17,WNW,282,0.0,0.0,57,0.00,,,0.00,,2013-03-20 07:12:00,
2013-03-20 03:22:00,32.0,19.0,30.17,WNW,282,0.0,0.0,58,0.00,,,0.00,,2013-03-20 07:22:00,
2013-03-20 03:32:00,32.0,19.0,30.16,West,269,1.0,5.0,59,0.00,,,0.00,,2013-03-20 07:32:00,
2013-03-20 03:42:00,32.0,19.0,30.16,West,269,1.0,5.0,59,0.00,,,0.00,,2013-03-20 07:42:00,
2013-03-20 03:52:00,31.0,18.0,30.16,West,272,0.0,3.0,59,0.00,,,0.00,,2013-03-20 07:52:00,
2013-03-20 04:02:00,31.0,19.0,30.16,NW,305,0.0,0.0,61,0.00,,,0.00,,2013-03-20 08:02:00,
2013-03-20 04:12:00,31.0,19.0,30.16,NW,305,0.0,0.0,61,0.00,,,0.00,,2013-03-20 08:12:00,
2013-03-20 04:22:00,31.0,19.0,30.15,WNW,295,0.0,0.0,61,0.00,,,0.00,,2013-03-20 08:22:00,
2013-03-20 04:32:00,31.0,20.0,30.14,WNW,295,0.0,0.0,62,0.00,,,0.00,,2013-03-20 08:32:00,
2013-03-20 04:42:00,31.0,20.0,30.14,WNW,295,0.0,0.0,62,0.00,,,0.00,,2013-03-20 08:42:00,
2013-03-20 04:52:00,31.0,20.0,30.14,WNW,295,0.0,0.0,62,0.00,,,0.00,,2013-03-20 08:52:00,
2013-03-20 05:02:00,31.0,20.0,30.13,WNW,295,0.0,0.0,62,0.00,,,0.00,,2013-03-20 09:02:00,
2013-03-20 05:12:00,31.0,20.0,30.13,WNW,295,0.0,0.0,62,0.00,,,0.00,,2013-03-20 09:12:00,
2013-03-20 05:22:00,31.0,20.0,30.13,WNW,295,0.0,0.0,63,0.00,,,0.00,,2013-03-20 09:22:00,
2013-03-20 05:33:00,29.0,18.0,30.12,WNW,295,0.0,0.0,63,0.00,,,0.00,,2013-03-20 09:33:00,
2013-03-20 05:43:00,29.0,18.0,30.12,WNW,295,0.0,0.0,63,0.00,,,0.00,,2013-03-20 09:43:00,
2013-03-20 05:52:00,29.0,18.0,30.11,WNW,295,0.0,0.0,63,0.00,,,0.00,,2013-03-20 09:52:00,
2013-03-20 06:03:00,28.0,18.0,30.11,SW,215,0.0,0.0,65,0.00,,,0.00,,2013-03-20 10:03:00,
2013-03-20 06:12:00,28.0,18.0,30.11,SW,215,0.0,0.0,65,0.00,,,0.00,,2013-03-20 10:12:00,
2013-03-20 06:23:00,29.0,19.0,30.11,WSW,241,3.0,5.0,66,0.00,,,0.00,,2013-03-20 10:23:00,
2013-03-20 06:33:00,28.0,18.0,30.10,SW,232,2.0,5.0,66,0.00,,,0.00,,2013-03-20 10:33:00,
2013-03-20 06:42:00,28.0,18.0,30.10,SW,232,2.0,5.0,66,0.00,,,0.00,,2013-03-20 10:42:00,
2013-03-20 06:53:00,28.0,18.0,30.10,West,270,0.0,0.0,67,0.00,,,0.00,,2013-03-20 10:53:00,
2013-03-20 07:03:00,28.0,18.0,30.10,West,270,0.0,0.0,67,0.00,,,0.00,,2013-03-20 11:03:00,
2013-03-20 07:12:00,28.0,18.0,30.10,West,270,0.0,0.0,67,0.00,,,0.00,,2013-03-20 11:12:00,
2013-03-20 07:22:00,27.0,18.0,30.10,West,270,0.0,0.0,69,0.00,,,0.00,,2013-03-20 11:22:00,
2013-03-20 07:32:00,27.0,18.0,30.09,SW,234,0.0,0.0,69,0.00,,,0.00,,2013-03-20 11:32:00,
2013-03-20 07:42:00,27.0,18.0,30.09,SW,234,0.0,0.0,69,0.00,,,0.00,,2013-03-20 11:42:00,
2013-03-20 07:52:00,27.0,19.0,30.10,WNW,291,1.0,3.0,70,0.00,,,0.00,,2013-03-20 11:52:00,
2013-03-20 08:02:00,27.0,19.0,30.10,SW,230,0.0,0.0,70,0.00,,,0.00,,2013-03-20 12:02:00,
2013-03-20 08:12:00,27.0,19.0,30.10,SW,230,0.0,0.0,70,0.00,,,0.00,,2013-03-20 12:12:00,
2013-03-20 08:22:00,27.0,19.0,30.11,SSW,202,0.0,0.0,70,0.00,,,0.00,,2013-03-20 12:22:00,
2013-03-20 08:32:00,27.0,19.0,30.12,SSW,202,0.0,0.0,72,0.00,,,0.00,,2013-03-20 12:32:00,
2013-03-20 08:42:00,27.0,19.0,30.12,SSW,202,0.0,0.0,72,0.00,,,0.00,,2013-03-20 12:42:00,
2013-03-20 08:52:00,27.0,19.0,30.12,SSW,202,0.0,3.0,72,0.00,,,0.00,,2013-03-20 12:52:00,
2013-03-20 09:03:00,28.0,20.0,30.12,WSW,241,0.0,0.0,72,0.00,,,0.00,,2013-03-20 13:03:00,
2013-03-20 09:12:00,28.0,20.0,30.12,WSW,241,0.0,0.0,72,0.00,,,0.00,,2013-03-20 13:12:00,
2013-03-20 09:22:00,29.0,21.0,30.12,WSW,241,0.0,0.0,72,0.00,,,0.00,,2013-03-20 13:22:00,
2013-03-20 09:32:00,30.0,21.0,30.12,WNW,286,0.0,5.0,70,0.00,,,0.00,,2013-03-20 13:32:00,
2013-03-20 09:42:00,30.0,21.0,30.12,WNW,286,0.0,5.0,70,0.00,,,0.00,,2013-03-20 13:42:00,
2013-03-20 09:53:00,31.0,22.0,30.12,West,276,0.0,3.0,69,0.00,,,0.00,,2013-03-20 13:53:00,
2013-03-20 10:03:00,32.0,21.0,30.12,NNW,328,1.0,5.0,63,0.00,,,0.00,,2013-03-20 14:03:00,
2013-03-20 10:12:00,32.0,21.0,30.12,NNW,328,1.0,5.0,63,0.00,,,0.00,,2013-03-20 14:12:00,
2013-03-20 10:23:00,32.0,20.0,30.11,North,1,0.0,6.0,61,0.00,,,0.00,,2013-03-20 14:23:00,
2013-03-20 10:33:00,33.0,18.0,30.11,NNW,328,2.0,10.0,54,0.00,,,0.00,,2013-03-20 14:33:00,
2013-03-20 10:42:00,33.0,18.0,30.11,NNW,328,2.0,10.0,54,0.00,,,0.00,,2013-03-20 14:42:00,
2013-03-20 10:53:00,34.0,19.0,30.11,West,262,1.0,3.0,54,0.00,,,0.00,,2013-03-20 14:53:00,
2013-03-20 11:02:00,34.0,17.0,30.11,NW,318,2.0,6.0,50,0.00,,,0.00,,2013-03-20 15:02:00,
2013-03-20 11:12:00,33.0,17.0,30.11,North,358,6.0,14.0,52,0.00,,,0.00,,2013-03-20 15:12:00,
2013-03-20 11:22:00,33.0,17.0,30.11,North,358,6.0,14.0,52,0.00,,,0.00,,2013-03-20 15:22:00,
2013-03-20 11:33:00,33.0,17.0,30.11,West,268,6.0,8.0,52,0.00,,,0.00,,2013-03-20 15:33:00,
2013-03-20 11:43:00,33.0,17.0,30.11,West,268,6.0,8.0,52,0.00,,,0.00,,2013-03-20 15:43:00,
2013-03-20 11:53:00,35.0,18.0,30.11,WNW,290,3.0,7.0,50,0.00,,,0.00,,2013-03-20 15:53:00,
2013-03-20 12:03:00,34.0,16.0,30.11,NW,326,7.0,7.0,48,0.00,,,0.00,,2013-03-20 16:03:00,
2013-03-20 12:12:00,34.0,16.0,30.11,NW,326,7.0,7.0,48,0.00,,,0.00,,2013-03-20 16:12:00,
2013-03-20 12:23:00,34.0,17.0,30.11,NW,313,5.0,8.0,49,0.00,,,0.00,,2013-03-20 16:23:00,
2013-03-20 12:33:00,34.0,16.0,30.11,NNW,330,5.0,8.0,47,0.00,,,0.00,,2013-03-20 16:33:00,
2013-03-20 12:43:00,34.0,16.0,30.11,NNW,330,5.0,8.0,47,0.00,,,0.00,,2013-03-20 16:43:00,
2013-03-20 12:53:00,34.0,15.0,30.11,WNW,289,5.0,12.0,46,0.00,,,0.00,,2013-03-20 16:53:00,
2013-03-20 13:03:00,34.0,15.0,30.11,NNW,343,12.0,18.0,46,0.00,,,0.00,,2013-03-20 17:03:00,
2013-03-20 13:12:00,34.0,15.0,30.11,NNW,343,12.0,18.0,46,0.00,,,0.00,,2013-03-20 17:12:00,
2013-03-20 13:22:00,35.0,15.0,30.12,NNW,327,6.0,10.0,43,0.00,,,0.00,,2013-03-20 17:22:00,
2013-03-20 13:32:00,34.0,14.0,30.12,WNW,295,5.0,6.0,44,0.00,,,0.00,,2013-03-20 17:32:00,
2013-03-20 13:42:00,34.0,14.0,30.12,WNW,295,5.0,6.0,44,0.00,,,0.00,,2013-03-20 17:42:00,
2013-03-20 13:53:00,35.0,15.0,30.11,NNW,348,8.0,20.0,44,0.00,,,0.00,,2013-03-20 17:53:00,
2013-03-20 14:02:00,34.0,15.0,30.11,NNW,337,6.0,8.0,46,0.00,,,0.00,,2013-03-20 18:02:00,
2013-03-20 14:12:00,34.0,15.0,30.11,NNW,337,6.0,8.0,46,0.00,,,0.00,,2013-03-20 18:12:00,
2013-03-20 14:22:00,35.0,15.0,30.11,WNW,283,5.0,7.0,44,0.00,,,0.00,,2013-03-20 18:22:00,
2013-03-20 14:33:00,36.0,16.0,30.10,NNW,347,8.0,13.0,43,0.00,,,0.00,,2013-03-20 18:33:00,
2013-03-20 14:42:00,36.0,16.0,30.10,NNW,347,8.0,13.0,43,0.00,,,0.00,,2013-03-20 18:42:00,
2013-03-20 14:53:00,36.0,15.0,30.09,NW,319,5.0,10.0,41,0.00,,,0.00,,2013-03-20 18:53:00,
2013-03-20 15:02:00,36.0,15.0,30.08,NNW,335,3.0,9.0,41,0.00,,,0.00,,2013-03-20 19:02:00,
2013-03-20 15:12:00,36.0,15.0,30.08,NNW,335,3.0,9.0,41,0.00,,,0.00,,2013-03-20 19:12:00,
2013-03-20 15:22:00,35.0,13.0,30.07,NNW,337,5.0,5.0,39,0.00,,,0.00,,2013-03-20 19:22:00,
2013-03-20 15:32:00,35.0,13.0,30.07,NNW,341,12.0,16.0,39,0.00,,,0.00,,2013-03-20 19:32:00,
2013-03-20 15:42:00,35.0,13.0,30.07,NNW,341,12.0,16.0,39,0.00,,,0.00,,2013-03-20 19:42:00,
2013-03-20 15:53:00,36.0,13.0,30.06,NNW,341,8.0,13.0,38,0.00,,,0.00,,2013-03-20 19:53:00,
2013-03-20 16:02:00,36.0,13.0,30.06,WNW,298,1.0,8.0,39,0.00,,,0.00,,2013-03-20 20:02:00,
2013-03-20 16:13:00,36.0,13.0,30.06,WNW,298,1.0,8.0,39,0.00,,,0.00,,2013-03-20 20:13:00,
2013-03-20 16:22:00,37.0,13.0,30.05,NNW,343,10.0,16.0,36,0.00,,,0.00,,2013-03-20 20:22:00,
2013-03-20 16:32:00,36.0,12.0,30.05,North,358,7.0,14.0,37,0.00,,,0.00,,2013-03-20 20:32:00,
2013-03-20 16:42:00,36.0,12.0,30.05,North,358,7.0,14.0,37,0.00,,,0.00,,2013-03-20 20:42:00,
2013-03-20 16:53:00,37.0,13.0,30.05,NNW,332,3.0,15.0,36,0.00,,,0.00,,2013-03-20 20:53:00,
2013-03-20 17:02:00,36.0,12.0,30.04,West,281,3.0,6.0,37,0.00,,,0.00,,2013-03-20 21:02:00,
2013-03-20 17:12:00,36.0,12.0,30.04,West,281,3.0,6.0,37,0.00,,,0.00,,2013-03-20 21:12:00,
2013-03-20 17:22:00,36.0,12.0,30.04,NW,324,9.0,10.0,37,0.00,,,0.00,,2013-03-20 21:22:00,
2013-03-20 17:33:00,35.0,12.0,30.05,NNW,346,10.0,15.0,38,0.00,,,0.00,,2013-03-20 21:33:00,
2013-03-20 17:42:00,35.0,12.0,30.05,NNW,346,10.0,15.0,38,0.00,,,0.00,,2013-03-20 21:42:00,
2013-03-20 17:53:00,36.0,13.0,30.05,NNW,333,9.0,10.0,39,0.00,,,0.00,,2013-03-20 21:53:00,
2013-03-20 18:03:00,36.0,13.0,30.05,NNW,329,8.0,10.0,38,0.00,,,0.00,,2013-03-20 22:03:00,
2013-03-20 18:13:00,36.0,13.0,30.05,NNW,329,8.0,10.0,38,0.00,,,0.00,,2013-03-20 22:13:00,
2013-03-20 18:23:00,34.0,12.0,30.05,WNW,287,3.0,10.0,39,0.00,,,0.00,,2013-03-20 22:23:00,
2013-03-20 18:33:00,33.0,11.0,30.06,NW,321,10.0,12.0,39,0.00,,,0.00,,2013-03-20 22:33:00,
2013-03-20 18:42:00,33.0,11.0,30.06,NW,321,10.0,12.0,39,0.00,,,0.00,,2013-03-20 22:42:00,
2013-03-20 18:53:00,32.0,12.0,30.06,NNW,336,1.0,6.0,43,0.00,,,0.00,,2013-03-20 22:53:00,
2013-03-20 19:02:00,31.0,11.0,30.06,NW,325,7.0,10.0,43,0.00,,,0.00,,2013-03-20 23:02:00,
2013-03-20 19:12:00,31.0,11.0,30.06,NW,325,7.0,10.0,43,0.00,,,0.00,,2013-03-20 23:12:00,
2013-03-20 19:22:00,31.0,11.0,30.07,West,271,7.0,10.0,43,0.00,,,0.00,,2013-03-20 23:22:00,
2013-03-20 19:32:00,30.0,10.0,30.08,NW,308,5.0,9.0,43,0.00,,,0.00,,2013-03-20 23:32:00,
2013-03-20 19:42:00,30.0,10.0,30.08,NW,308,5.0,9.0,43,0.00,,,0.00,,2013-03-20 23:42:00,
2013-03-20 19:53:00,29.0,11.0,30.09,NW,325,5.0,9.0,47,0.00,,,0.00,,2013-03-20 23:53:00,
2013-03-20 20:02:00,29.0,12.0,30.09,NW,307,2.0,7.0,48,0.00,,,0.00,,2013-03-21 00:02:00,
2013-03-20 20:12:00,29.0,12.0,30.09,NW,307,2.0,7.0,48,0.00,,,0.00,,2013-03-21 00:12:00,
2013-03-20 20:23:00,28.0,13.0,30.09,NNW,329,7.0,10.0,53,0.00,,,0.00,,2013-03-21 00:23:00,
2013-03-20 20:33:00,27.0,12.0,30.09,NNW,334,7.0,10.0,53,0.00,,,0.00,,2013-03-21 00:33:00,
2013-03-20 20:42:00,27.0,12.0,30.09,NNW,334,7.0,10.0,53,0.00,,,0.00,,2013-03-21 00:42:00,
2013-03-20 20:53:00,27.0,12.0,30.10,North,7,1.0,3.0,52,0.00,,,0.00,,2013-03-21 00:53:00,
2013-03-20 21:02:00,27.0,12.0,30.09,NNW,334,6.0,9.0,52,0.00,,,0.00,,2013-03-21 01:02:00,
2013-03-20 21:12:00,27.0,12.0,30.09,NNW,334,6.0,9.0,52,0.00,,,0.00,,2013-03-21 01:12:00,
2013-03-20 21:22:00,26.0,11.0,30.10,NNW,335,5.0,9.0,53,0.00,,,0.00,,2013-03-21 01:22:00,
2013-03-20 21:32:00,26.0,11.0,30.10,NW,326,3.0,6.0,53,0.00,,,0.00,,2013-03-21 01:32:00,
2013-03-20 21:42:00,26.0,11.0,30.10,NW,326,3.0,6.0,53,0.00,,,0.00,,2013-03-21 01:42:00,
2013-03-20 21:53:00,26.0,11.0,30.09,WNW,285,0.0,6.0,53,0.00,,,0.00,,2013-03-21 01:53:00,
2013-03-20 22:02:00,26.0,12.0,30.09,NNW,346,6.0,9.0,54,0.00,,,0.00,,2013-03-21 02:02:00,
2013-03-20 22:12:00,26.0,12.0,30.09,NNW,346,6.0,9.0,54,0.00,,,0.00,,2013-03-21 02:12:00,
2013-03-20 22:22:00,25.0,11.0,30.09,NW,313,0.0,3.0,54,0.00,,,0.00,,2013-03-21 02:22:00,
2013-03-20 22:32:00,25.0,11.0,30.09,WNW,302,0.0,0.0,54,0.00,,,0.00,,2013-03-21 02:32:00,
2013-03-20 22:42:00,25.0,11.0,30.09,WNW,302,0.0,0.0,54,0.00,,,0.00,,2013-03-21 02:42:00,
2013-03-20 22:52:00,25.0,11.0,30.09,WNW,302,0.0,0.0,54,0.00,,,0.00,,2013-03-21 02:52:00,
2013-03-20 23:02:00,25.0,11.0,30.09,North,0,0.0,0.0,54,0.00,,,0.00,,2013-03-21 03:02:00,
2013-03-20 23:12:00,25.0,11.0,30.09,North,0,0.0,0.0,54,0.00,,,0.00,,2013-03-21 03:12:00,
2013-03-20 23:22:00,24.0,10.0,30.09,North,0,0.0,0.0,55,0.00,,,0.00,,2013-03-21 03:22:00,
2013-03-20 23:33:00,24.0,10.0,30.09,North,0,0.0,0.0,55,0.00,,,0.00,,2013-03-21 03:33:00,
2013-03-20 23:43:00,24.0,10.0,30.09,North,0,0.0,0.0,55,0.00,,,0.00,,2013-03-21 03:43:00,
2013-03-20 23:53:00,24.0,11.0,30.09,North,0,0.0,0.0,57,0.00,,,0.00,,2013-03-21 03:53:00,